createdAt,value
2023-01-01T00:02:10.090Z,997.07
2023-01-01T00:07:09.965Z,997.00
2023-01-01T00:12:09.894Z,997.10
2023-01-01T00:17:09.835Z,997.18
2023-01-01T00:22:52.218Z,997.23
2023-01-01T00:27:10.941Z,997.23
2023-01-01T00:32:11.619Z,997.16
2023-01-01T00:37:09.576Z,997.07
2023-01-01T00:42:09.672Z,997.13
2023-01-01T00:47:09.800Z,997.19
2023-01-01T00:52:09.426Z,997.23
2023-01-01T00:57:09.455Z,997.31
2023-01-01T01:03:04.283Z,997.28
2023-01-01T01:08:03.987Z,997.39
2023-01-01T01:13:03.865Z,997.28
2023-01-01T01:18:03.850Z,997.28
2023-01-01T01:23:03.741Z,997.35
2023-01-01T01:28:03.686Z,997.38
2023-01-01T01:33:03.734Z,997.51
2023-01-01T01:38:03.561Z,997.53
2023-01-01T01:43:03.544Z,997.52
2023-01-01T01:48:03.437Z,997.47
2023-01-01T01:53:03.347Z,997.52
2023-01-01T01:58:03.306Z,997.53
2023-01-01T02:03:03.235Z,997.48
2023-01-01T02:08:03.179Z,997.43
2023-01-01T02:13:03.106Z,997.45
2023-01-01T02:18:03.041Z,997.41
2023-01-01T02:23:04.637Z,997.30
2023-01-01T02:28:02.903Z,997.33
2023-01-01T02:33:02.830Z,997.32
2023-01-01T02:38:02.777Z,997.28
2023-01-01T02:43:02.692Z,997.24
2023-01-01T02:48:02.632Z,997.19
2023-01-01T02:53:02.577Z,997.21
2023-01-01T02:58:02.500Z,997.32
2023-01-01T03:03:02.576Z,997.25
2023-01-01T03:08:02.388Z,997.29
2023-01-01T03:13:02.305Z,997.26
2023-01-01T03:18:02.236Z,997.21
2023-01-01T03:23:02.166Z,997.16
2023-01-01T03:28:02.096Z,997.22
2023-01-01T03:33:02.022Z,997.15
2023-01-01T03:38:01.973Z,997.19
2023-01-01T03:43:01.887Z,997.24
2023-01-01T03:48:01.824Z,997.25
2023-01-01T03:53:01.753Z,997.23
2023-01-01T03:58:01.705Z,997.27
2023-01-01T04:03:01.666Z,997.19
2023-01-01T04:08:01.559Z,997.21
2023-01-01T04:13:01.496Z,997.29
2023-01-01T04:18:01.428Z,997.35
2023-01-01T04:23:01.372Z,997.39
2023-01-01T04:28:01.303Z,997.50
2023-01-01T04:33:01.264Z,997.52
2023-01-01T04:38:01.188Z,997.56
2023-01-01T04:43:01.125Z,997.63
2023-01-01T04:48:01.049Z,997.63
2023-01-01T04:53:00.995Z,997.67
2023-01-01T04:58:00.919Z,997.80
2023-01-01T05:03:00.950Z,997.90
2023-01-01T05:08:00.808Z,997.88
2023-01-01T05:13:00.777Z,998.02
2023-01-01T05:18:00.664Z,998.05
2023-01-01T05:23:00.625Z,998.03
2023-01-01T05:28:00.541Z,997.95
2023-01-01T05:33:00.502Z,997.95
2023-01-01T05:38:00.404Z,998.05
2023-01-01T05:43:00.361Z,998.03
2023-01-01T05:48:00.284Z,998.13
2023-01-01T05:53:00.226Z,998.28
2023-01-01T05:58:00.149Z,998.34
2023-01-01T06:03:00.118Z,998.40
2023-01-01T06:08:00.029Z,998.34
2023-01-01T06:12:59.971Z,998.33
2023-01-01T06:17:59.894Z,998.44
2023-01-01T06:22:59.837Z,998.40
2023-01-01T06:27:59.758Z,998.44
2023-01-01T06:32:59.699Z,998.53
2023-01-01T06:37:59.637Z,998.61
2023-01-01T06:42:59.576Z,998.71
2023-01-01T06:47:59.494Z,998.73
2023-01-01T06:52:59.436Z,998.85
2023-01-01T06:57:59.365Z,998.93
2023-01-01T07:02:59.603Z,999.03
2023-01-01T07:07:59.234Z,999.23
2023-01-01T07:12:59.171Z,999.11
2023-01-01T07:17:59.096Z,999.12
2023-01-01T07:22:59.036Z,999.21
2023-01-01T07:27:58.962Z,999.22
2023-01-01T07:32:58.905Z,999.14
2023-01-01T07:37:58.831Z,999.18
2023-01-01T07:42:58.779Z,999.17
2023-01-01T07:47:58.706Z,999.36
2023-01-01T07:52:58.643Z,999.24
2023-01-01T07:57:58.572Z,999.41
2023-01-01T08:02:58.846Z,999.48
2023-01-01T08:07:58.445Z,999.48
2023-01-01T08:12:58.384Z,999.62
2023-01-01T08:17:58.322Z,999.85
2023-01-01T08:23:04.643Z,999.99
2023-01-01T08:27:58.191Z,1000.03
2023-01-01T08:32:58.131Z,1000.02
2023-01-01T08:37:58.057Z,1000.13
2023-01-01T08:42:58.023Z,1000.16
2023-01-01T08:47:57.921Z,1000.18
2023-01-01T08:52:57.862Z,1000.22
2023-01-01T08:57:57.794Z,1000.39
2023-01-01T09:02:57.864Z,1000.42
2023-01-01T09:07:57.661Z,1000.45
2023-01-01T09:12:57.599Z,1000.44
2023-01-01T09:17:57.527Z,1000.53
2023-01-01T09:23:01.081Z,1000.59
2023-01-01T09:27:57.399Z,1000.71
2023-01-01T09:32:57.348Z,1000.83
2023-01-01T09:37:57.265Z,1000.69
2023-01-01T09:42:57.206Z,1000.77
2023-01-01T09:47:57.142Z,1000.72
2023-01-01T09:52:57.083Z,1000.58
2023-01-01T09:57:57.083Z,1000.51
2023-01-01T10:02:56.945Z,1000.52
2023-01-01T10:07:56.870Z,1000.56
2023-01-01T10:12:56.817Z,1000.59
2023-01-01T10:17:56.745Z,1000.57
2023-01-01T10:22:56.700Z,1000.84
2023-01-01T10:27:59.570Z,1000.71
2023-01-01T10:32:56.574Z,1000.67
2023-01-01T10:37:56.491Z,1000.66
2023-01-01T10:42:56.437Z,1000.47
2023-01-01T10:47:56.357Z,1000.52
2023-01-01T10:52:56.305Z,1000.46
2023-01-01T10:57:56.324Z,1000.53
2023-01-01T11:02:56.404Z,1000.58
2023-01-01T11:07:56.349Z,1000.64
2023-01-01T11:13:05.668Z,1000.76
2023-01-01T11:17:56.421Z,1000.69
2023-01-01T11:22:56.315Z,1000.50
2023-01-01T11:27:56.343Z,1000.29
2023-01-01T11:32:55.991Z,1000.49
2023-01-01T11:37:55.715Z,1000.50
2023-01-01T11:42:58.579Z,1000.60
2023-01-01T11:47:55.578Z,1000.44
2023-01-01T11:52:55.514Z,1000.59
2023-01-01T11:57:55.447Z,1000.55
2023-01-01T12:02:55.424Z,1000.54
2023-01-01T12:07:55.317Z,1000.56
2023-01-01T12:12:55.251Z,1000.50
2023-01-01T12:17:55.179Z,1000.48
2023-01-01T12:22:55.135Z,1000.49
2023-01-01T12:27:55.045Z,1000.39
2023-01-01T12:32:54.989Z,1000.47
2023-01-01T12:37:54.913Z,1000.53
2023-01-01T12:42:54.863Z,1000.42
2023-01-01T12:47:54.795Z,1000.44
2023-01-01T12:52:54.742Z,1000.51
2023-01-01T12:57:54.658Z,1000.49
2023-01-01T13:02:54.665Z,1000.55
2023-01-01T13:07:54.534Z,1000.60
2023-01-01T13:12:54.482Z,1000.63
2023-01-01T13:17:54.391Z,1000.84
2023-01-01T13:22:54.332Z,1000.89
2023-01-01T13:27:54.258Z,1000.99
2023-01-01T13:32:54.204Z,1001.10
2023-01-01T13:37:54.127Z,1001.09
2023-01-01T13:42:57.397Z,1001.25
2023-01-01T13:47:53.998Z,1001.29
2023-01-01T13:52:53.943Z,1001.36
2023-01-01T13:57:53.870Z,1001.44
2023-01-01T14:02:53.841Z,1001.39
2023-01-01T14:07:53.739Z,1001.47
2023-01-01T14:12:53.684Z,1001.44
2023-01-01T14:17:53.613Z,1001.42
2023-01-01T14:22:53.548Z,1001.49
2023-01-01T14:27:53.476Z,1001.53
2023-01-01T14:32:53.416Z,1001.56
2023-01-01T14:37:53.343Z,1001.52
2023-01-01T14:42:53.285Z,1001.55
2023-01-01T14:47:53.215Z,1001.44
2023-01-01T14:52:53.158Z,1001.38
2023-01-01T14:57:53.083Z,1001.42
2023-01-01T15:02:53.172Z,1001.49
2023-01-01T15:07:52.951Z,1001.69
2023-01-01T15:12:52.895Z,1001.75
2023-01-01T15:17:52.824Z,1001.73
2023-01-01T15:22:52.795Z,1001.81
2023-01-01T15:27:52.714Z,1001.78
2023-01-01T15:32:52.630Z,1001.82
2023-01-01T15:37:52.566Z,1001.81
2023-01-01T15:42:52.501Z,1001.79
2023-01-01T15:47:52.431Z,1001.83
2023-01-01T15:52:55.729Z,1001.82
2023-01-01T15:57:52.301Z,1001.74
2023-01-01T16:02:52.604Z,1001.78
2023-01-01T16:07:52.163Z,1001.78
2023-01-01T16:12:52.087Z,1001.79
2023-01-01T16:17:52.029Z,1001.79
2023-01-01T16:22:51.949Z,1001.86
2023-01-01T16:27:51.894Z,1001.91
2023-01-01T16:32:51.817Z,1001.84
2023-01-01T16:37:51.760Z,1001.74
2023-01-01T16:42:51.683Z,1001.74
2023-01-01T16:47:51.633Z,1001.81
2023-01-01T16:52:51.546Z,1001.92
2023-01-01T16:57:51.491Z,1001.98
2023-01-01T17:02:51.495Z,1001.91
2023-01-01T17:07:51.352Z,1001.94
2023-01-01T17:12:51.277Z,1002.04
2023-01-01T17:17:51.222Z,1002.03
2023-01-01T17:22:51.145Z,1001.98
2023-01-01T17:27:51.087Z,1001.94
2023-01-01T17:32:51.019Z,1001.83
2023-01-01T17:37:50.959Z,1001.93
2023-01-01T17:42:50.879Z,1002.02
2023-01-01T17:47:50.822Z,1001.96
2023-01-01T17:52:50.748Z,1001.93
2023-01-01T17:57:50.691Z,1001.90
2023-01-01T18:02:50.693Z,1001.95
2023-01-01T18:07:50.556Z,1002.01
2023-01-01T18:12:50.486Z,1002.05
2023-01-01T18:17:50.429Z,1001.98
2023-01-01T18:22:50.358Z,1001.95
2023-01-01T18:27:57.216Z,1002.02
2023-01-01T18:32:50.224Z,1002.01
2023-01-01T18:37:50.160Z,1001.99
2023-01-01T18:42:50.092Z,1002.00
2023-01-01T18:47:50.033Z,1001.94
2023-01-01T18:52:49.957Z,1001.96
2023-01-01T18:57:49.903Z,1001.96
2023-01-01T19:02:49.931Z,1001.92
2023-01-01T19:07:49.773Z,1001.84
2023-01-01T19:12:49.713Z,1001.81
2023-01-01T19:17:49.642Z,1001.72
2023-01-01T19:22:49.574Z,1001.64
2023-01-01T19:27:53.497Z,1001.63
2023-01-01T19:32:49.426Z,1001.64
2023-01-01T19:37:49.368Z,1001.58
2023-01-01T19:42:49.292Z,1001.59
2023-01-01T19:47:49.239Z,1001.60
2023-01-01T19:52:49.157Z,1001.63
2023-01-01T19:57:49.122Z,1001.50
2023-01-01T20:02:49.484Z,1001.63
2023-01-01T20:07:48.971Z,1001.48
2023-01-01T20:12:48.896Z,1001.43
2023-01-01T20:17:48.839Z,1001.13
2023-01-01T20:22:48.760Z,1001.17
2023-01-01T20:27:54.681Z,1001.18
2023-01-01T20:32:48.627Z,1001.20
2023-01-01T20:37:48.575Z,1001.11
2023-01-01T20:42:48.499Z,1001.01
2023-01-01T20:47:48.440Z,1001.07
2023-01-01T20:52:48.367Z,1000.95
2023-01-01T20:57:48.315Z,1000.93
2023-01-01T21:02:48.418Z,1000.87
2023-01-01T21:07:48.191Z,1000.75
2023-01-01T21:12:48.107Z,1000.75
2023-01-01T21:17:48.049Z,1000.80
2023-01-01T21:22:47.988Z,1000.79
2023-01-01T21:27:47.920Z,1000.72
2023-01-01T21:32:47.865Z,1000.83
2023-01-01T21:37:47.852Z,1000.80
2023-01-01T21:42:47.739Z,1000.79
2023-01-01T21:47:47.673Z,1000.74
2023-01-01T21:52:47.831Z,1000.70
2023-01-01T21:57:47.539Z,1000.68
2023-01-01T22:02:47.630Z,1000.68
2023-01-01T22:08:02.852Z,1000.60
2023-01-01T22:12:48.366Z,1000.52
2023-01-01T22:17:47.283Z,1000.43
2023-01-01T22:22:47.212Z,1000.35
2023-01-01T22:27:47.170Z,1000.23
2023-01-01T22:32:47.080Z,1000.28
2023-01-01T22:37:50.829Z,1000.32
2023-01-01T22:42:46.951Z,1000.23
2023-01-01T22:47:46.903Z,1000.19
2023-01-01T22:52:46.830Z,1000.09
2023-01-01T22:57:46.770Z,999.95
2023-01-01T23:02:46.776Z,999.92
2023-01-01T23:07:46.668Z,999.84
2023-01-01T23:12:46.592Z,999.77
2023-01-01T23:17:46.513Z,999.77
2023-01-01T23:22:46.443Z,999.72
2023-01-01T23:27:46.385Z,999.72
2023-01-01T23:32:46.315Z,999.67
2023-01-01T23:37:46.258Z,999.64
2023-01-01T23:42:46.186Z,999.62
2023-01-01T23:47:46.125Z,999.62
2023-01-01T23:52:46.057Z,999.65
2023-01-01T23:57:46.003Z,999.63
